Time;durP1;ratioP1;P1;durP2;ratioP2;P2;SDS_P1;SDS_P2;PMS_P1;PMS_P2;Temp;Humidity;BMP_temperature;BMP_pressure;BME280_temperature;BME280_humidity;BME280_pressure;Samples;Min_cycle;Max_cycle;Signal;HPM_P1;HPM_P2
2022/09/13 00:00:40;;;;;;;44.88;27.05;;;19.70;99.90;;;;;;5100158;28;20075;-73
2022/09/13 00:03:06;;;;;;;33.85;22.88;;;19.70;99.90;;;;;;5132456;27;20102;-73
2022/09/13 00:05:33;;;;;;;34.83;21.67;;;19.70;99.90;;;;;;5133076;27;20044;-73
2022/09/13 00:07:59;;;;;;;47.97;28.45;;;19.70;99.90;;;;;;5099717;28;20051;-73
2022/09/13 00:10:25;;;;;;;48.97;28.55;;;19.70;99.90;;;;;;5098672;28;20040;-73
2022/09/13 00:12:51;;;;;;;54.28;30.90;;;19.60;99.90;;;;;;5099702;28;20050;-73
2022/09/13 00:15:17;;;;;;;41.47;25.17;;;19.50;99.90;;;;;;5133139;27;20413;-74
2022/09/13 00:17:43;;;;;;;54.55;30.88;;;19.40;99.90;;;;;;5099612;28;20177;-73
2022/09/13 00:20:09;;;;;;;50.40;28.98;;;19.30;99.90;;;;;;5098646;28;20123;-74
2022/09/13 00:22:35;;;;;;;46.58;28.15;;;19.30;99.90;;;;;;5099489;28;20429;-73
2022/09/13 00:25:03;;;;;;;46.17;28.83;;;19.20;99.90;;;;;;5099358;28;20054;-73
2022/09/13 00:27:29;;;;;;;44.83;29.08;;;19.30;99.90;;;;;;5099497;28;20072;-73
2022/09/13 00:29:54;;;;;;;44.00;27.35;;;19.40;99.90;;;;;;5099331;28;20426;-73
2022/09/13 00:32:20;;;;;;;36.30;24.27;;;19.50;99.90;;;;;;5132209;27;20186;-74
2022/09/13 00:34:46;;;;;;;35.70;24.10;;;19.60;99.90;;;;;;5132493;27;20043;-73
2022/09/13 00:37:11;;;;;;;34.38;23.63;;;19.80;99.90;;;;;;5098241;28;20040;-74
2022/09/13 00:39:37;;;;;;;37.80;24.83;;;19.80;99.90;;;;;;5099340;28;20040;-74
2022/09/13 00:42:03;;;;;;;51.45;29.30;;;19.90;99.90;;;;;;5098894;28;20067;-73
2022/09/13 00:44:52;;;;;;;67.00;35.25;;;20.00;99.90;;;;;;5097946;28;20052;-74
2022/09/13 00:47:26;;;;;;;61.78;33.90;;;20.00;99.90;;;;;;5096814;28;20086;-73
2022/09/13 00:49:59;;;;;;;40.63;26.55;;;20.00;99.90;;;;;;5132369;27;20488;-73
2022/09/13 00:52:28;;;;;;;40.53;24.98;;;20.00;99.90;;;;;;5098906;28;20032;-73
2022/09/13 00:55:03;;;;;;;37.30;24.77;;;20.10;99.90;;;;;;5131890;27;20425;-74
2022/09/13 00:57:31;;;;;;;51.72;30.30;;;20.10;99.90;;;;;;5099146;28;20040;-74
2022/09/13 01:00:13;;;;;;;36.78;24.50;;;20.10;99.90;;;;;;5097930;28;20044;-73
2022/09/13 01:02:50;;;;;;;37.47;24.27;;;20.10;99.90;;;;;;5131571;27;20040;-74
2022/09/13 01:05:20;;;;;;;35.22;25.08;;;20.10;99.90;;;;;;5131771;27;20040;-74
2022/09/13 01:07:46;;;;;;;36.30;23.48;;;20.10;99.90;;;;;;5098914;28;20036;-74
2022/09/13 01:10:12;;;;;;;35.95;23.75;;;20.10;99.90;;;;;;5097638;28;20345;-73
2022/09/13 01:13:24;;;;;;;46.40;27.83;;;20.10;99.90;;;;;;5132003;27;20040;-73
2022/09/13 01:15:50;;;;;;;33.17;23.67;;;20.10;99.90;;;;;;5077793;28;20048;-74
2022/09/13 01:18:16;;;;;;;39.53;23.35;;;20.10;99.90;;;;;;5131658;27;20115;-74
2022/09/13 01:21:16;;;;;;;29.80;21.15;;;20.00;99.90;;;;;;5098656;28;20433;-74
2022/09/13 01:24:00;;;;;;;33.83;21.70;;;20.00;99.90;;;;;;5131389;27;20043;-73
2022/09/13 01:26:41;;;;;;;26.73;19.05;;;20.10;99.90;;;;;;5098190;28;20387;-74
2022/09/13 01:29:33;;;;;;;34.03;21.92;;;20.10;99.90;;;;;;5098198;28;20508;-74
2022/09/13 01:32:37;;;;;;;43.50;25.05;;;20.20;99.90;;;;;;5066498;28;20052;-74
2022/09/13 01:35:22;;;;;;;40.80;24.73;;;20.10;99.90;;;;;;5098285;28;20047;-74
2022/09/13 01:38:12;;;;;;;46.13;25.90;;;20.20;99.90;;;;;;5098290;28;20081;-74
2022/09/13 01:41:05;;;;;;;34.70;21.85;;;20.10;99.90;;;;;;5130830;27;20090;-73
2022/09/13 01:43:44;;;;;;;46.63;25.27;;;20.00;99.90;;;;;;5131051;27;20044;-74
2022/09/13 01:46:26;;;;;;;43.50;25.55;;;19.70;99.90;;;;;;5097854;28;20040;-73
2022/09/13 01:48:54;;;;;;;31.88;21.95;;;19.50;99.90;;;;;;5096683;28;20481;-74
2022/09/13 01:51:26;;;;;;;36.40;22.17;;;19.60;99.90;;;;;;5097918;28;20040;-74
2022/09/13 01:53:58;;;;;;;33.47;20.42;;;19.60;99.90;;;;;;5096835;28;20368;-73
2022/09/13 01:56:26;;;;;;;43.20;23.30;;;19.60;99.90;;;;;;5130787;27;20109;-74
2022/09/13 01:58:57;;;;;;;27.38;18.70;;;19.80;99.90;;;;;;5079284;28;20439;-74
2022/09/13 02:01:32;;;;;;;27.23;16.67;;;19.70;99.90;;;;;;5113523;28;20075;-74
2022/09/13 02:04:04;;;;;;;29.52;18.85;;;19.70;99.90;;;;;;5097422;28;20044;-74
2022/09/13 02:06:33;;;;;;;23.08;16.15;;;19.80;99.90;;;;;;5097493;28;20089;-74
2022/09/13 02:09:15;;;;;;;34.00;20.98;;;19.90;99.90;;;;;;5097543;28;20040;-74
2022/09/13 02:11:43;;;;;;;30.73;19.38;;;19.80;99.90;;;;;;5080987;28;20105;-74
2022/09/13 02:14:20;;;;;;;20.38;14.93;;;19.80;99.90;;;;;;5097432;28;20040;-74
2022/09/13 02:16:55;;;;;;;30.00;19.38;;;19.80;99.90;;;;;;5130404;27;20044;-74
2022/09/13 02:19:27;;;;;;;33.67;19.55;;;19.80;99.90;;;;;;5130549;27;20068;-74
2022/09/13 02:21:59;;;;;;;31.95;18.70;;;19.80;99.90;;;;;;5097156;28;20436;-74
2022/09/13 02:24:35;;;;;;;24.27;17.33;;;19.90;99.90;;;;;;5129934;27;20333;-74
2022/09/13 02:27:03;;;;;;;;;;;19.80;99.90;;;;;;5097681;28;20471;-74
2022/09/13 02:29:32;;;;;;;26.50;17.73;;;19.80;99.90;;;;;;5097077;28;20014;-74
2022/09/13 02:32:08;;;;;;;26.20;17.38;;;19.70;99.90;;;;;;5097069;28;20177;-74
2022/09/13 02:34:50;;;;;;;39.40;22.25;;;19.70;99.90;;;;;;5096870;28;20039;-74
2022/09/13 02:37:16;;;;;;;28.92;18.00;;;19.70;99.90;;;;;;5097120;28;20036;-74
2022/09/13 02:39:55;;;;;;;25.15;16.80;;;19.70;99.90;;;;;;5096911;28;20448;-74
2022/09/13 02:42:37;;;;;;;25.67;16.05;;;19.70;99.90;;;;;;5129743;27;20516;-74
2022/09/13 02:45:05;;;;;;;41.42;22.88;;;19.80;99.90;;;;;;5096998;28;20438;-74
2022/09/13 02:47:56;;;;;;;44.63;22.67;;;19.70;99.90;;;;;;5129942;27;20032;-74
2022/09/13 02:50:54;;;;;;;22.33;16.77;;;19.50;99.90;;;;;;5095732;28;20040;-74
2022/09/13 02:53:54;;;;;;;23.80;16.13;;;19.40;99.90;;;;;;5097028;28;20085;-74
2022/09/13 02:56:26;;;;;;;50.03;24.73;;;19.50;99.90;;;;;;5078525;28;20044;-74
2022/09/13 02:59:08;;;;;;;40.20;23.45;;;19.60;99.90;;;;;;5129592;27;20040;-73
2022/09/13 03:01:36;;;;;;;30.05;18.20;;;19.70;99.90;;;;;;5096778;28;20040;-74
2022/09/13 03:04:02;;;;;;;49.28;24.25;;;19.80;99.90;;;;;;5129351;27;20044;-74
2022/09/13 03:06:28;;;;;;;43.30;22.55;;;19.80;99.90;;;;;;5096579;28;20048;-74
2022/09/13 03:08:57;;;;;;;44.83;23.90;;;19.70;99.90;;;;;;5078716;28;20127;-74
2022/09/13 03:11:34;;;;;;;29.10;19.42;;;19.70;99.90;;;;;;5095850;28;20032;-74
2022/09/13 03:14:03;;;;;;;53.40;25.15;;;19.60;99.90;;;;;;5096702;28;20036;-74
2022/09/13 03:16:31;;;;;;;48.58;24.15;;;19.50;99.90;;;;;;5095497;28;20032;-74
2022/09/13 03:19:15;;;;;;;49.70;25.17;;;19.60;99.90;;;;;;5130281;28;20048;-74
2022/09/13 03:22:00;;;;;;;44.20;23.85;;;19.60;99.90;;;;;;5115679;28;20087;-73
2022/09/13 03:24:57;;;;;;;47.22;23.55;;;19.70;99.90;;;;;;5116696;28;20051;-74
2022/09/13 03:27:36;;;;;;;48.33;23.73;;;19.60;99.90;;;;;;5115712;28;20421;-74
2022/09/13 03:30:11;;;;;;;31.02;19.55;;;19.70;99.90;;;;;;5150084;27;20119;-74
2022/09/13 03:32:46;;;;;;;26.55;16.65;;;19.80;99.90;;;;;;5116438;28;20032;-74
2022/09/13 03:35:38;;;;;;;30.92;15.40;;;19.70;99.90;;;;;;5116747;28;20092;-73
2022/09/13 03:38:20;;;;;;;20.92;10.88;;;19.70;99.90;;;;;;5116535;28;20452;-73
2022/09/13 03:41:04;;;;;;;13.15;7.00;;;19.70;99.90;;;;;;5116670;28;20084;-74
2022/09/13 03:43:42;;;;;;;9.05;4.50;;;19.60;99.90;;;;;;5115773;28;20051;-74
2022/09/13 03:46:14;;;;;;;6.85;4.50;;;19.60;99.90;;;;;;5115447;28;20085;-74
2022/09/13 03:48:42;;;;;;;5.35;3.10;;;19.80;99.90;;;;;;5115878;28;20070;-74
2022/09/13 03:51:08;;;;;;;7.32;3.88;;;19.80;99.90;;;;;;5115404;28;20440;-73
2022/09/13 03:53:39;;;;;;;5.53;3.83;;;19.90;99.90;;;;;;5115680;28;20044;-74
2022/09/13 03:56:16;;;;;;;4.88;3.40;;;20.00;99.90;;;;;;5116498;28;20310;-74
2022/09/13 03:58:42;;;;;;;5.82;2.50;;;20.00;99.90;;;;;;5116577;28;20044;-73
2022/09/13 04:01:09;;;;;;;5.70;2.63;;;20.00;99.90;;;;;;5115369;28;20492;-73
2022/09/13 04:03:36;;;;;;;6.07;2.72;;;20.00;99.90;;;;;;5114989;28;20123;-73
2022/09/13 04:06:02;;;;;;;4.90;2.17;;;20.10;99.90;;;;;;5115197;28;20043;-74
2022/09/13 04:08:28;;;;;;;3.35;2.22;;;20.10;99.90;;;;;;5098352;28;20043;-74
2022/09/13 04:10:54;;;;;;;5.43;2.35;;;20.00;99.90;;;;;;5116598;28;20039;-74
2022/09/13 04:13:21;;;;;;;4.57;1.60;;;20.10;99.90;;;;;;5149567;27;20048;-74
2022/09/13 04:15:47;;;;;;;2.75;1.83;;;20.10;99.90;;;;;;5115516;28;20085;-74
2022/09/13 04:18:13;;;;;;;5.22;2.53;;;20.00;99.90;;;;;;5116572;28;20079;-74
2022/09/13 04:20:39;;;;;;;4.65;2.50;;;20.00;99.90;;;;;;5116097;28;20071;-74
2022/09/13 04:23:04;;;;;;;6.45;2.67;;;19.90;99.90;;;;;;5118911;28;20089;-74
2022/09/13 04:25:30;;;;;;;3.40;1.80;;;19.90;99.90;;;;;;5118949;28;20040;-74
2022/09/13 04:27:58;;;;;;;5.93;2.50;;;19.90;99.90;;;;;;5120094;28;20078;-74
2022/09/13 04:30:25;;;;;;;5.57;1.70;;;20.00;99.90;;;;;;5118701;28;20039;-74
2022/09/13 04:32:51;;;;;;;2.55;1.92;;;20.10;99.90;;;;;;5118307;28;20493;-74
2022/09/13 04:35:18;;;;;;;3.63;2.40;;;20.10;99.90;;;;;;5119739;28;20040;-74
2022/09/13 04:37:44;;;;;;;6.13;2.72;;;20.10;99.90;;;;;;5118801;28;20324;-73
2022/09/13 04:40:11;;;;;;;5.80;2.47;;;20.10;99.90;;;;;;5119744;28;20110;-73
2022/09/13 04:42:36;;;;;;;8.73;3.00;;;19.90;99.90;;;;;;5119384;28;20056;-73
2022/09/13 04:45:03;;;;;;;5.82;2.10;;;19.80;99.90;;;;;;5119773;27;20048;-73
2022/09/13 04:47:29;;;;;;;5.97;1.83;;;19.70;99.90;;;;;;5118801;28;20047;-73
2022/09/13 04:49:55;;;;;;;5.22;1.45;;;19.60;99.90;;;;;;5118379;28;20040;-74
2022/09/13 04:52:21;;;;;;;5.10;1.65;;;19.70;99.90;;;;;;5119418;28;20115;-73
2022/09/13 04:54:47;;;;;;;5.03;1.85;;;19.70;99.90;;;;;;5119210;28;20075;-74
2022/09/13 04:57:15;;;;;;;5.25;1.67;;;19.80;99.90;;;;;;5119376;28;20032;-74
2022/09/13 04:59:42;;;;;;;4.53;1.50;;;19.80;99.90;;;;;;5119461;28;20035;-73
2022/09/13 05:02:08;;;;;;;2.90;1.30;;;19.90;99.90;;;;;;5101455;28;20051;-73
2022/09/13 05:04:34;;;;;;;4.18;1.95;;;19.90;99.90;;;;;;5118711;28;20047;-74
2022/09/13 05:06:59;;;;;;;4.57;1.48;;;19.90;99.90;;;;;;5119023;28;20057;-73
2022/09/13 05:09:25;;;;;;;4.65;1.45;;;19.80;99.90;;;;;;5119042;28;20036;-73
2022/09/13 05:11:51;;;;;;;6.00;1.77;;;19.70;99.90;;;;;;5119185;28;20039;-73
2022/09/13 05:14:16;;;;;;;7.13;2.35;;;19.60;99.90;;;;;;5117945;28;20046;-73
2022/09/13 05:16:42;;;;;;;9.43;2.25;;;19.50;99.90;;;;;;5118921;28;20082;-74
2022/09/13 05:19:09;;;;;;;7.15;1.40;;;19.40;99.90;;;;;;5152174;27;20061;-74
2022/09/13 05:21:34;;;;;;;6.32;1.90;;;19.40;99.90;;;;;;5118753;28;20122;-74
2022/09/13 05:24:00;;;;;;;5.10;1.85;;;19.40;99.90;;;;;;5118889;28;20078;-73
2022/09/13 05:26:30;;;;;;;6.22;2.08;;;19.40;99.90;;;;;;5117601;28;20123;-75
2022/09/13 05:28:56;;;;;;;8.95;2.70;;;19.40;99.90;;;;;;5118737;28;20039;-74
2022/09/13 05:31:25;;;;;;;3.90;1.60;;;19.40;99.90;;;;;;5118575;28;20035;-73
2022/09/13 05:34:00;;;;;;;6.18;1.42;;;19.40;99.90;;;;;;5116326;28;20040;-74
2022/09/13 05:36:26;;;;;;;6.65;2.10;;;19.40;99.90;;;;;;5118595;28;20078;-74
2022/09/13 05:38:53;;;;;;;7.75;2.22;;;19.40;99.90;;;;;;5117407;28;20079;-74
2022/09/13 05:41:19;;;;;;;5.97;2.30;;;19.30;99.90;;;;;;5118418;28;20093;-73
2022/09/13 05:43:44;;;;;;;8.45;2.30;;;19.20;99.90;;;;;;5118300;28;20314;-73
2022/09/13 05:46:18;;;;;;;5.07;2.13;;;19.30;99.90;;;;;;5118342;28;20130;-74
2022/09/13 05:48:45;;;;;;;4.00;2.20;;;19.10;99.90;;;;;;5117096;28;20412;-74
2022/09/13 05:51:13;;;;;;;9.40;3.25;;;19.10;99.90;;;;;;5117514;28;20093;-74
2022/09/13 05:53:40;;;;;;;6.28;2.67;;;19.10;99.90;;;;;;5118245;28;20040;-74
2022/09/13 05:56:12;;;;;;;6.15;2.60;;;19.20;99.90;;;;;;5118059;28;20043;-74
2022/09/13 05:58:39;;;;;;;9.82;3.42;;;19.20;99.90;;;;;;5118126;28;20096;-74
2022/09/13 06:01:05;;;;;;;8.07;2.72;;;19.20;99.90;;;;;;5100370;28;20090;-74
2022/09/13 06:03:30;;;;;;;7.47;3.08;;;19.10;99.90;;;;;;5117852;28;20047;-74
2022/09/13 06:05:57;;;;;;;7.68;3.45;;;19.20;99.90;;;;;;5117855;28;20032;-74
2022/09/13 06:08:24;;;;;;;9.75;3.00;;;19.30;99.90;;;;;;5118167;28;20332;-74
2022/09/13 06:11:00;;;;;;;10.13;3.65;;;19.40;99.90;;;;;;5117842;28;20362;-74
2022/09/13 06:13:26;;;;;;;;;;;19.50;99.90;;;;;;5117340;28;20089;-74
2022/09/13 06:15:54;;;;;;;6.35;3.33;;;19.60;99.90;;;;;;5117728;28;20262;-74
2022/09/13 06:18:21;;;;;;;8.10;2.05;;;19.50;99.90;;;;;;5117621;28;20041;-74
2022/09/13 06:20:48;;;;;;;5.90;2.30;;;19.50;99.90;;;;;;5117946;28;20119;-74
2022/09/13 06:23:15;;;;;;;9.77;2.95;;;19.60;99.90;;;;;;5151030;27;20054;-74
2022/09/13 06:25:41;;;;;;;12.40;2.75;;;19.70;99.90;;;;;;5117591;28;20031;-74
2022/09/13 06:28:08;;;;;;;9.38;3.30;;;19.70;99.90;;;;;;5117334;28;20496;-73
2022/09/13 06:30:34;;;;;;;9.38;3.35;;;19.50;99.90;;;;;;5117491;28;20051;-74
2022/09/13 06:32:59;;;;;;;7.55;3.38;;;19.40;99.90;;;;;;5098936;28;20088;-74
2022/09/13 06:35:25;;;;;;;6.05;2.42;;;19.30;99.90;;;;;;5116401;28;20047;-74
2022/09/13 06:37:55;;;;;;;12.80;3.42;;;19.20;99.90;;;;;;5116219;28;20043;-73
2022/09/13 06:40:21;;;;;;;11.88;3.10;;;19.40;99.90;;;;;;5117126;28;20039;-74
2022/09/13 06:42:47;;;;;;;12.43;3.42;;;19.40;99.90;;;;;;5117550;28;20504;-72
2022/09/13 06:45:13;;;;;;;11.27;4.05;;;19.50;99.90;;;;;;5115127;28;20078;-70
2022/09/13 06:47:39;;;;;;;9.30;2.30;;;19.50;99.90;;;;;;5117543;28;20071;-70
2022/09/13 06:50:06;;;;;;;10.65;3.47;;;19.50;99.90;;;;;;5117182;27;20337;-71
2022/09/13 06:52:32;;;;;;;11.20;2.42;;;19.60;99.90;;;;;;5117430;28;20039;-71
2022/09/13 06:54:57;;;;;;;9.57;3.55;;;19.60;99.90;;;;;;5116919;28;20041;-71
2022/09/13 06:57:23;;;;;;;11.70;3.33;;;19.80;99.90;;;;;;5117169;28;20039;-72
2022/09/13 06:59:49;;;;;;;12.82;3.60;;;19.80;99.90;;;;;;5117357;28;20058;-71
2022/09/13 07:02:15;;;;;;;10.70;3.47;;;19.90;99.90;;;;;;5117050;28;20039;-73
2022/09/13 07:04:40;;;;;;;6.72;2.30;;;19.90;99.90;;;;;;5116832;28;20043;-74
2022/09/13 07:07:06;;;;;;;7.40;2.17;;;20.00;99.90;;;;;;5116973;28;20039;-69
2022/09/13 07:09:33;;;;;;;7.00;2.20;;;20.00;99.90;;;;;;5116857;28;20054;-69
2022/09/13 07:11:59;;;;;;;11.40;2.40;;;19.90;99.90;;;;;;5116972;28;20046;-73
2022/09/13 07:14:27;;;;;;;7.43;2.00;;;19.90;99.90;;;;;;5116874;28;20039;-73
2022/09/13 07:16:54;;;;;;;15.02;2.38;;;20.00;99.90;;;;;;5116809;28;20043;-73
2022/09/13 07:19:27;;;;;;;7.25;1.52;;;20.10;99.90;;;;;;5117036;28;20039;-73
2022/09/13 07:21:54;;;;;;;7.95;1.92;;;20.00;99.90;;;;;;5116868;28;20093;-73
2022/09/13 07:24:21;;;;;;;7.88;1.80;;;20.00;99.90;;;;;;5116579;28;20489;-74
2022/09/13 07:26:47;;;;;;;10.95;1.98;;;19.90;99.90;;;;;;5117074;28;20036;-73
2022/09/13 07:29:17;;;;;;;9.13;1.55;;;19.90;99.90;;;;;;5116787;28;20039;-74
2022/09/13 07:31:46;;;;;;;8.80;1.55;;;19.90;99.90;;;;;;5117040;28;20078;-73
2022/09/13 07:34:19;;;;;;;5.20;1.60;;;19.90;99.90;;;;;;5116424;28;20032;-73
2022/09/13 07:36:46;;;;;;;7.72;1.45;;;19.90;99.90;;;;;;5116483;28;20035;-73
2022/09/13 07:39:13;;;;;;;11.45;2.22;;;19.70;99.90;;;;;;5116863;28;20109;-73
2022/09/13 07:41:39;;;;;;;9.55;1.60;;;19.80;99.90;;;;;;5116472;28;20043;-73
2022/09/13 07:44:06;;;;;;;5.78;1.85;;;19.70;99.90;;;;;;5116693;28;20074;-73
2022/09/13 07:46:40;;;;;;;7.63;1.70;;;19.60;99.90;;;;;;5116513;28;20051;-73
2022/09/13 07:49:06;;;;;;;6.63;1.70;;;19.60;99.90;;;;;;5116560;28;20035;-74
2022/09/13 07:51:34;;;;;;;5.55;1.10;;;19.60;99.90;;;;;;5116685;28;20086;-73
2022/09/13 07:54:03;;;;;;;6.20;0.70;;;19.60;99.90;;;;;;5116622;28;20035;-73
2022/09/13 07:56:40;;;;;;;5.15;0.90;;;19.60;99.90;;;;;;5118098;28;20035;-70
2022/09/13 07:59:09;;;;;;;5.57;0.70;;;19.70;99.90;;;;;;5119411;28;20424;-72
2022/09/13 08:01:38;;;;;;;8.10;0.90;;;19.60;99.90;;;;;;5120389;28;20512;-74
2022/09/13 08:04:12;;;;;;;6.20;1.13;;;19.60;99.90;;;;;;5120003;28;20052;-77
2022/09/13 08:06:39;;;;;;;3.83;0.52;;;19.60;99.90;;;;;;5121445;28;20451;-73
2022/09/13 08:09:06;;;;;;;7.75;0.68;;;19.70;99.90;;;;;;5122488;28;20043;-73
2022/09/13 08:11:36;;;;;;;5.07;0.80;;;19.60;99.90;;;;;;5120998;28;20336;-76
2022/09/13 08:14:04;;;;;;;7.72;0.80;;;19.70;99.90;;;;;;5120409;28;20313;-70
2022/09/13 08:16:30;;;;;;;5.57;0.60;;;19.80;99.90;;;;;;5120076;28;20048;-70
2022/09/13 08:18:59;;;;;;;4.47;0.70;;;19.70;99.90;;;;;;5153802;27;20130;-70
2022/09/13 08:21:26;;;;;;;4.88;0.82;;;19.90;99.90;;;;;;5120139;28;20040;-70
2022/09/13 08:23:58;;;;;;;7.72;0.95;;;19.80;99.90;;;;;;5119975;28;20065;-70
2022/09/13 08:26:27;;;;;;;6.05;0.90;;;20.00;99.90;;;;;;5119754;28;20050;-71
2022/09/13 08:29:01;;;;;;;8.57;1.25;;;20.00;99.90;;;;;;5119863;28;20101;-70
2022/09/13 08:31:27;;;;;;;7.18;0.70;;;19.90;99.90;;;;;;5120137;28;20051;-70
2022/09/13 08:33:54;;;;;;;7.35;0.93;;;19.70;99.90;;;;;;5119302;28;20324;-70
2022/09/13 08:36:22;;;;;;;8.90;0.60;;;19.60;99.90;;;;;;5119851;28;20043;-70
2022/09/13 08:38:54;;;;;;;6.60;0.95;;;19.80;99.90;;;;;;5119561;27;20436;-70
2022/09/13 08:41:38;;;;;;;6.55;0.70;;;20.10;99.90;;;;;;5119385;28;20134;-71
2022/09/13 08:44:27;;;;;;;5.80;0.60;;;20.10;99.90;;;;;;5119922;28;20127;-70
2022/09/13 08:47:01;;;;;;;9.65;0.75;;;20.30;99.90;;;;;;5119420;27;20040;-70
2022/09/13 08:49:34;;;;;;;7.47;0.90;;;20.40;99.90;;;;;;5119474;28;20425;-69
2022/09/13 08:52:14;;;;;;;6.10;0.70;;;20.50;99.90;;;;;;5119364;28;20070;-70
2022/09/13 08:54:40;;;;;;;4.50;0.70;;;20.60;99.90;;;;;;5118823;28;20320;-89
2022/09/13 08:57:25;;;;;;;6.35;0.60;;;20.40;99.90;;;;;;5092484;28;20096;-72
2022/09/13 09:00:18;;;;;;;6.70;0.73;;;20.30;99.90;;;;;;5106765;28;20493;-72
2022/09/13 09:03:17;;;;;;;11.73;1.08;;;20.20;99.90;;;;;;5098702;28;20048;-72
2022/09/13 09:05:47;;;;;;;6.82;0.82;;;20.30;99.90;;;;;;5098483;28;20075;-72
2022/09/13 09:08:13;;;;;;;10.77;0.95;;;20.30;99.90;;;;;;5097834;28;20024;-72
2022/09/13 09:10:45;;;;;;;7.28;0.55;;;20.40;99.90;;;;;;5098473;28;20487;-72
2022/09/13 09:13:29;;;;;;;7.32;0.55;;;20.30;99.90;;;;;;5099221;28;20043;-72
2022/09/13 09:16:20;;;;;;;5.85;0.70;;;20.40;99.90;;;;;;5102645;28;21465;-72
2022/09/13 09:18:47;;;;;;;7.47;0.77;;;20.60;99.90;;;;;;5101384;28;20317;-71
2022/09/13 09:21:16;;;;;;;6.18;0.55;;;20.70;99.90;;;;;;5118195;28;20039;-74
2022/09/13 09:23:54;;;;;;;4.47;0.70;;;20.60;99.90;;;;;;5115616;28;20129;-73
2022/09/13 09:26:24;;;;;;;4.70;0.68;;;20.50;99.90;;;;;;5106567;28;20066;-72
2022/09/13 09:29:17;;;;;;;4.18;0.47;;;20.40;99.90;;;;;;5098152;28;20032;-72
2022/09/13 09:31:53;;;;;;;5.72;0.70;;;20.40;99.90;;;;;;5098555;28;20305;-72
2022/09/13 09:34:43;;;;;;;8.00;0.77;;;20.50;99.90;;;;;;5098056;28;20047;-72
2022/09/13 09:37:27;;;;;;;2.00;0.30;;;20.60;99.90;;;;;;5098477;28;20036;-74
2022/09/13 09:39:57;;;;;;;4.65;0.52;;;20.90;99.90;;;;;;5132088;27;20040;-93
2022/09/13 09:42:29;;;;;;;7.53;0.60;;;20.60;99.90;;;;;;5113586;28;20048;-86
2022/09/13 09:45:01;;;;;;;4.10;0.68;;;20.20;99.90;;;;;;5097219;28;20040;-86
2022/09/13 09:47:31;;;;;;;4.30;0.47;;;20.20;99.90;;;;;;5080152;28;20032;-85
2022/09/13 09:50:08;;;;;;;7.18;0.70;;;20.10;99.90;;;;;;5114284;28;20032;-85
2022/09/13 09:53:15;;;;;;;9.40;0.73;;;20.10;99.90;;;;;;5130990;27;20500;-84
2022/09/13 09:55:49;;;;;;;8.50;0.60;;;20.30;99.90;;;;;;5079939;28;20439;-86
2022/09/13 09:58:15;;;;;;;5.65;0.50;;;20.50;99.90;;;;;;5079995;28;20032;-84
2022/09/13 10:00:53;;;;;;;4.85;0.88;;;20.60;99.90;;;;;;5114007;28;20044;-87
2022/09/13 10:03:31;;;;;;;6.68;0.60;;;20.60;99.90;;;;;;5096496;28;20047;-85
2022/09/13 10:06:10;;;;;;;6.82;0.70;;;20.40;99.90;;;;;;5130737;27;20079;-87
2022/09/13 10:08:38;;;;;;;4.82;0.60;;;20.50;99.90;;;;;;5096675;28;20036;-85
2022/09/13 10:11:05;;;;;;;5.20;0.45;;;20.60;99.90;;;;;;5130827;27;20039;-82
2022/09/13 10:13:31;;;;;;;7.70;0.60;;;20.80;99.90;;;;;;5113367;28;20038;-81
2022/09/13 10:16:00;;;;;;;4.57;0.60;;;20.90;99.90;;;;;;5130546;27;20078;-84
2022/09/13 10:18:28;;;;;;;4.75;0.50;;;21.00;99.90;;;;;;5080422;28;20123;-84
2022/09/13 10:21:05;;;;;;;5.70;0.38;;;20.80;99.80;;;;;;5114289;28;20035;-86
2022/09/13 10:23:33;;;;;;;8.73;0.63;;;20.50;99.90;;;;;;5131115;27;20361;-86
2022/09/13 10:26:09;;;;;;;6.10;1.00;;;20.30;99.90;;;;;;5113046;28;20071;-83
2022/09/13 10:28:41;;;;;;;13.18;0.70;;;20.60;99.90;;;;;;5113316;28;20075;-82
2022/09/13 10:31:10;;;;;;;9.35;0.80;;;21.00;99.90;;;;;;5079810;28;20036;-83
2022/09/13 10:33:43;;;;;;;7.20;0.90;;;21.30;99.90;;;;;;5095849;28;20040;-83
2022/09/13 10:36:17;;;;;;;6.43;0.90;;;21.40;99.90;;;;;;5079026;28;20078;-84
2022/09/13 10:38:56;;;;;;;5.78;0.65;;;21.60;99.90;;;;;;5130280;27;20044;-85
2022/09/13 10:41:25;;;;;;;6.13;0.50;;;21.40;99.80;;;;;;5112886;28;20090;-84
2022/09/13 10:44:00;;;;;;;6.30;0.90;;;21.30;99.20;;;;;;5130226;27;20040;-85
2022/09/13 10:46:28;;;;;;;11.82;0.93;;;21.10;99.60;;;;;;5079037;28;20166;-85
2022/09/13 10:48:55;;;;;;;6.63;0.70;;;21.20;99.90;;;;;;5096024;28;20036;-83
2022/09/13 10:51:35;;;;;;;7.13;0.68;;;21.30;99.90;;;;;;5113035;28;20028;-87
2022/09/13 10:54:19;;;;;;;5.80;0.90;;;21.20;99.30;;;;;;5097473;28;20032;-83
2022/09/13 10:56:46;;;;;;;4.65;0.50;;;21.10;99.40;;;;;;5097560;28;20115;-90
2022/09/13 10:59:51;;;;;;;4.45;0.60;;;20.70;99.70;;;;;;5096035;28;20104;-83
2022/09/13 11:02:41;;;;;;;5.05;0.90;;;20.70;99.60;;;;;;5090642;28;20451;-89
2022/09/13 11:05:40;;;;;;;5.22;0.60;;;21.00;99.50;;;;;;5095550;28;20044;-80
2022/09/13 11:08:27;;;;;;;3.20;0.40;;;20.70;99.20;;;;;;5082395;28;20048;-77
2022/09/13 11:11:17;;;;;;;5.15;0.65;;;21.10;98.90;;;;;;5112823;28;20119;-78
2022/09/13 11:13:52;;;;;;;4.07;0.60;;;21.20;99.00;;;;;;5095443;28;20032;-79
2022/09/13 11:16:31;;;;;;;7.13;0.70;;;21.70;99.80;;;;;;5112570;28;20042;-90
2022/09/13 11:19:22;;;;;;;5.70;0.60;;;22.10;98.90;;;;;;5113220;28;20067;-85
2022/09/13 11:22:09;;;;;;;6.18;0.50;;;22.70;99.10;;;;;;5129745;27;20181;-72
2022/09/13 11:25:02;;;;;;;6.35;0.70;;;23.00;98.30;;;;;;5097660;28;20107;-70
2022/09/13 11:27:33;;;;;;;3.85;0.57;;;23.00;98.30;;;;;;5096635;28;20103;-73
2022/09/13 11:30:18;;;;;;;6.45;0.65;;;22.90;98.20;;;;;;5096436;28;20032;-71
2022/09/13 11:33:11;;;;;;;7.38;0.82;;;22.70;98.60;;;;;;5100231;28;20036;-71
2022/09/13 11:36:11;;;;;;;7.22;0.50;;;22.30;98.00;;;;;;5100718;28;20057;-70
2022/09/13 11:38:37;;;;;;;4.40;0.60;;;22.40;98.50;;;;;;5099933;28;20351;-71
2022/09/13 11:41:27;;;;;;;4.72;0.43;;;22.80;98.50;;;;;;5100281;28;20098;-71
2022/09/13 11:44:14;;;;;;;4.05;0.35;;;23.20;97.80;;;;;;5100699;28;20040;-71
2022/09/13 11:46:50;;;;;;;5.32;0.57;;;23.80;97.90;;;;;;5100227;28;20036;-71
2022/09/13 11:49:17;;;;;;;;;;;24.30;97.70;;;;;;5100791;28;20379;-71
2022/09/13 11:51:50;;;;;;;4.55;0.70;;;24.40;97.30;;;;;;5100378;28;19935;-79
2022/09/13 11:54:51;;;;;;;4.65;0.77;;;23.70;97.40;;;;;;5099427;28;20024;-79
2022/09/13 11:57:24;;;;;;;7.10;0.80;;;22.40;97.90;;;;;;5099058;28;20039;-79
2022/09/13 11:59:58;;;;;;;4.82;0.70;;;22.10;98.50;;;;;;5099139;28;20325;-69
2022/09/13 12:02:58;;;;;;;6.10;0.85;;;22.20;98.00;;;;;;5100413;28;20085;-69
2022/09/13 12:05:30;;;;;;;10.63;1.42;;;23.00;98.30;;;;;;5100076;28;20051;-70
2022/09/13 12:08:08;;;;;;;5.97;0.95;;;24.00;98.20;;;;;;5100043;28;20024;-74
2022/09/13 12:10:51;;;;;;;6.53;0.70;;;24.60;97.90;;;;;;5100112;28;20098;-74
2022/09/13 12:13:28;;;;;;;7.50;0.93;;;24.60;97.50;;;;;;5099938;28;20063;-78
2022/09/13 12:15:59;;;;;;;7.15;0.93;;;24.40;97.90;;;;;;5133034;27;20040;-80
2022/09/13 12:18:33;;;;;;;5.85;0.80;;;23.90;97.50;;;;;;5132825;27;20052;-81
2022/09/13 12:21:22;;;;;;;10.82;0.90;;;23.20;97.80;;;;;;5098636;28;20035;-81
2022/09/13 12:24:00;;;;;;;4.53;0.60;;;23.30;98.00;;;;;;5098660;28;20036;-80
2022/09/13 12:26:29;;;;;;;9.55;0.80;;;23.50;97.50;;;;;;5132453;27;20123;-80
2022/09/13 12:29:00;;;;;;;5.43;0.80;;;23.50;97.70;;;;;;5098390;28;20036;-80
2022/09/13 12:31:29;;;;;;;5.75;0.60;;;22.80;97.80;;;;;;5100061;28;20110;-80
2022/09/13 12:33:55;;;;;;;10.63;1.27;;;22.40;97.80;;;;;;5098157;28;20074;-80
2022/09/13 12:36:49;;;;;;;7.18;0.80;;;22.10;98.10;;;;;;5098392;28;20036;-80
2022/09/13 12:39:56;;;;;;;6.90;0.82;;;22.40;98.40;;;;;;5098571;28;20052;-80
2022/09/13 12:42:40;;;;;;;6.32;0.75;;;22.20;98.30;;;;;;5075675;28;20088;-80
2022/09/13 12:45:41;;;;;;;10.15;1.23;;;22.30;98.50;;;;;;5081242;28;20040;-80
2022/09/13 12:48:10;;;;;;;5.15;0.90;;;22.40;98.30;;;;;;5132334;27;20040;-80
2022/09/13 12:50:56;;;;;;;10.82;0.80;;;22.60;98.40;;;;;;5098017;28;20483;-80
2022/09/13 12:53:39;;;;;;;7.75;0.80;;;23.10;98.80;;;;;;5098112;28;20032;-80
2022/09/13 12:56:20;;;;;;;7.20;0.80;;;23.00;97.70;;;;;;5099698;28;20058;-80
2022/09/13 12:59:13;;;;;;;6.10;0.77;;;22.80;98.00;;;;;;5132044;27;20032;-80
2022/09/13 13:01:46;;;;;;;7.43;1.20;;;22.30;98.20;;;;;;5099243;28;20036;-79
2022/09/13 13:04:26;;;;;;;6.07;0.85;;;22.20;98.50;;;;;;5098549;28;20340;-80
2022/09/13 13:06:59;;;;;;;5.20;0.82;;;22.10;97.90;;;;;;5098875;28;20432;-80
2022/09/13 13:09:34;;;;;;;7.70;0.85;;;22.30;97.90;;;;;;5098812;28;20093;-80
2022/09/13 13:12:00;;;;;;;10.15;0.90;;;22.30;98.10;;;;;;5132240;27;20104;-82